createdAt,value
2018-06-19T00:00:43.139Z,18.50
2018-06-19T00:03:12.266Z,18.40
2018-06-19T00:05:41.386Z,18.50
2018-06-19T00:08:10.677Z,18.40
2018-06-19T00:10:39.785Z,18.40
2018-06-19T00:13:08.904Z,18.50
2018-06-19T00:15:38.049Z,18.40
2018-06-19T00:18:14.388Z,18.50
2018-06-19T00:20:43.520Z,18.40
2018-06-19T00:23:12.693Z,18.40
2018-06-19T00:25:41.805Z,18.40
2018-06-19T00:28:10.936Z,18.40
2018-06-19T00:30:40.073Z,18.30
2018-06-19T00:33:09.185Z,18.40
2018-06-19T00:35:38.297Z,18.30
2018-06-19T00:38:07.430Z,18.30
2018-06-19T00:40:36.544Z,18.20
2018-06-19T00:43:05.836Z,18.20
2018-06-19T00:45:34.961Z,18.20
2018-06-19T00:48:04.097Z,18.20
2018-06-19T00:50:33.293Z,18.20
2018-06-19T00:53:02.417Z,18.10
2018-06-19T00:55:31.566Z,18.10
2018-06-19T00:58:00.741Z,18.00
2018-06-19T01:00:29.860Z,18.00
2018-06-19T01:02:58.992Z,18.00
2018-06-19T01:05:28.104Z,18.00
2018-06-19T01:07:57.242Z,17.90
2018-06-19T01:10:26.388Z,17.90
2018-06-19T01:12:55.513Z,17.90
2018-06-19T01:15:24.634Z,17.80
2018-06-19T01:17:53.757Z,17.80
2018-06-19T01:20:23.125Z,17.80
2018-06-19T01:22:52.246Z,17.80
2018-06-19T01:25:21.369Z,17.70
2018-06-19T01:27:50.586Z,17.70
2018-06-19T01:30:22.681Z,17.70
2018-06-19T01:32:51.817Z,17.60
2018-06-19T01:35:20.929Z,17.70
2018-06-19T01:37:50.045Z,17.60
2018-06-19T01:40:19.181Z,17.60
2018-06-19T01:42:48.311Z,17.50
2018-06-19T01:45:17.427Z,17.50
2018-06-19T01:47:46.553Z,17.50
2018-06-19T01:50:15.699Z,17.50
2018-06-19T01:52:44.809Z,17.50
2018-06-19T01:55:13.938Z,17.40
2018-06-19T01:57:43.089Z,17.40
2018-06-19T02:00:12.216Z,17.40
2018-06-19T02:02:41.353Z,17.40
2018-06-19T02:05:10.473Z,17.30
2018-06-19T02:07:39.601Z,17.40
2018-06-19T02:10:08.721Z,17.30
2018-06-19T02:12:37.845Z,17.30
2018-06-19T02:15:07.086Z,17.30
2018-06-19T02:17:36.207Z,17.30
2018-06-19T02:20:06.206Z,17.30
2018-06-19T02:22:35.338Z,17.30
2018-06-19T02:25:04.481Z,17.20
2018-06-19T02:27:33.822Z,17.30
2018-06-19T02:30:02.950Z,17.30
2018-06-19T02:32:32.065Z,17.20
2018-06-19T02:35:01.195Z,17.20
2018-06-19T02:37:30.322Z,17.20
2018-06-19T02:39:59.449Z,17.20
2018-06-19T02:42:28.709Z,17.20
2018-06-19T02:44:57.837Z,17.20
2018-06-19T02:47:26.969Z,17.20
2018-06-19T02:49:56.105Z,17.20
2018-06-19T02:52:25.249Z,17.20
2018-06-19T02:54:54.526Z,17.20
2018-06-19T02:57:23.705Z,17.20
2018-06-19T02:59:52.879Z,17.20
2018-06-19T03:02:22.282Z,17.20
2018-06-19T03:04:51.409Z,17.20
2018-06-19T03:07:20.533Z,17.10
2018-06-19T03:09:49.774Z,17.20
2018-06-19T03:12:18.889Z,17.20
2018-06-19T03:14:48.006Z,17.20
2018-06-19T03:17:18.125Z,17.20
2018-06-19T03:19:47.242Z,17.20
2018-06-19T03:22:16.378Z,17.20
2018-06-19T03:24:45.515Z,17.20
2018-06-19T03:27:14.636Z,17.20
2018-06-19T03:29:43.753Z,17.30
2018-06-19T03:32:12.889Z,17.30
2018-06-19T03:34:42.270Z,17.30
2018-06-19T03:37:11.385Z,17.40
2018-06-19T03:39:40.505Z,17.40
2018-06-19T03:42:09.632Z,17.30
2018-06-19T03:44:38.753Z,17.30
2018-06-19T03:47:07.933Z,17.40
2018-06-19T03:49:37.081Z,17.40
2018-06-19T03:52:06.461Z,17.40
2018-06-19T03:54:35.585Z,17.40
2018-06-19T03:57:04.825Z,17.40
2018-06-19T03:59:34.009Z,17.40
2018-06-19T04:02:03.200Z,17.40
2018-06-19T04:04:32.334Z,17.50
2018-06-19T04:07:01.449Z,17.50
2018-06-19T04:09:30.576Z,17.50
2018-06-19T04:11:59.813Z,17.50
2018-06-19T04:14:28.953Z,17.60
2018-06-19T04:16:58.073Z,17.60
2018-06-19T04:19:27.243Z,17.70
2018-06-19T04:21:56.504Z,17.80
2018-06-19T04:24:25.622Z,17.80
2018-06-19T04:26:55.007Z,17.90
2018-06-19T04:29:24.141Z,18.00
2018-06-19T04:31:53.273Z,18.00
2018-06-19T04:34:22.405Z,18.00
2018-06-19T04:36:51.525Z,18.10
2018-06-19T04:39:20.670Z,18.10
2018-06-19T04:41:49.861Z,18.10
2018-06-19T04:44:18.977Z,18.10
2018-06-19T04:49:17.108Z,18.20
2018-06-19T04:51:46.222Z,18.20
2018-06-19T04:54:15.346Z,18.20
2018-06-19T04:56:44.551Z,18.20
2018-06-19T04:59:13.679Z,18.20
2018-06-19T05:01:42.809Z,18.30
2018-06-19T05:04:12.053Z,18.30
2018-06-19T05:06:41.189Z,18.30
2018-06-19T05:09:12.789Z,18.30
2018-06-19T05:11:43.085Z,18.40
2018-06-19T05:14:12.499Z,18.40
2018-06-19T05:16:42.220Z,18.40
2018-06-19T05:19:11.737Z,18.40
2018-06-19T05:24:09.866Z,18.40
2018-06-19T05:26:39.238Z,18.40
2018-06-19T05:29:08.345Z,18.40
2018-06-19T05:31:37.465Z,18.40
2018-06-19T05:34:06.622Z,18.50
2018-06-19T05:36:35.775Z,18.50
2018-06-19T05:39:08.947Z,18.50
2018-06-19T05:41:38.417Z,18.60
2018-06-19T05:49:07.057Z,18.60
2018-06-19T05:51:36.177Z,18.70
2018-06-19T05:54:05.301Z,18.80
2018-06-19T05:56:34.439Z,18.90
2018-06-19T05:59:03.565Z,18.90
2018-06-19T06:01:32.811Z,18.90
2018-06-19T06:04:01.913Z,19.00
2018-06-19T06:06:31.144Z,19.00
2018-06-19T06:09:00.253Z,19.00
2018-06-19T06:11:29.722Z,19.00
2018-06-19T06:13:58.845Z,19.00
2018-06-19T06:16:28.026Z,19.00
2018-06-19T06:18:57.108Z,19.10
2018-06-19T06:21:26.237Z,19.10
2018-06-19T06:23:55.373Z,19.10
2018-06-19T06:26:24.516Z,19.10
2018-06-19T06:28:53.686Z,19.10
2018-06-19T06:31:23.049Z,19.10
2018-06-19T06:33:52.131Z,19.10
2018-06-19T06:36:21.276Z,19.20
2018-06-19T06:38:50.425Z,19.20
2018-06-19T06:41:19.537Z,19.20
2018-06-19T06:43:49.069Z,19.30
2018-06-19T06:46:18.211Z,19.30
2018-06-19T06:48:47.328Z,19.40
2018-06-19T06:51:16.461Z,19.40
2018-06-19T06:53:45.577Z,19.50
2018-06-19T06:56:14.701Z,19.50
2018-06-19T06:58:43.822Z,19.40
2018-06-19T07:01:12.947Z,19.50
2018-06-19T07:08:39.986Z,19.60
2018-06-19T07:11:09.128Z,19.60
2018-06-19T07:13:38.270Z,19.70
2018-06-19T07:16:07.397Z,19.70
2018-06-19T07:18:36.588Z,19.70
2018-06-19T07:21:05.765Z,19.70
2018-06-19T07:23:34.877Z,19.70
2018-06-19T07:26:04.039Z,19.70
2018-06-19T07:28:33.125Z,19.80
2018-06-19T07:31:02.333Z,19.90
2018-06-19T07:33:31.488Z,20.00
2018-06-19T07:36:00.635Z,20.10
2018-06-19T07:38:29.753Z,20.30
2018-06-19T07:40:59.096Z,20.30
2018-06-19T07:43:28.218Z,20.30
2018-06-19T07:45:57.341Z,20.30
2018-06-19T07:48:26.506Z,20.30
2018-06-19T07:50:55.632Z,20.40
2018-06-19T07:53:24.772Z,20.50
2018-06-19T07:55:53.906Z,20.60
2018-06-19T07:58:23.036Z,20.60
2018-06-19T08:00:52.161Z,20.60
2018-06-19T08:03:21.309Z,20.60
2018-06-19T08:05:50.441Z,20.60
2018-06-19T08:08:19.580Z,20.70
2018-06-19T08:10:48.706Z,20.70
2018-06-19T08:13:17.855Z,20.80
2018-06-19T08:15:46.977Z,20.80
2018-06-19T08:18:16.108Z,20.80
2018-06-19T08:20:45.250Z,20.90
2018-06-19T08:23:14.405Z,21.10
2018-06-19T08:25:44.386Z,21.10
2018-06-19T08:28:13.620Z,21.20
2018-06-19T08:30:42.753Z,21.20
2018-06-19T08:33:11.889Z,21.20
2018-06-19T08:35:41.006Z,21.30
2018-06-19T08:38:10.158Z,21.40
2018-06-19T08:40:39.309Z,21.50
2018-06-19T08:43:08.425Z,21.50
2018-06-19T08:45:37.575Z,21.60
2018-06-19T08:48:06.775Z,21.60
2018-06-19T08:50:35.833Z,21.60
2018-06-19T08:53:04.961Z,21.60
2018-06-19T08:55:34.090Z,21.70
2018-06-19T08:58:03.357Z,21.70
2018-06-19T09:00:32.482Z,21.70
2018-06-19T09:03:01.631Z,21.80
2018-06-19T09:05:30.996Z,21.90
2018-06-19T09:08:00.139Z,21.90
2018-06-19T09:10:29.264Z,21.80
2018-06-19T09:12:58.593Z,21.70
2018-06-19T09:15:27.718Z,21.70
2018-06-19T09:17:56.918Z,21.60
2018-06-19T09:20:26.052Z,21.60
2018-06-19T09:22:55.173Z,21.60
2018-06-19T09:25:24.305Z,21.70
2018-06-19T09:27:53.682Z,21.80
2018-06-19T09:30:22.817Z,21.80
2018-06-19T09:32:51.937Z,21.70
2018-06-19T09:35:21.080Z,21.60
2018-06-19T09:37:50.274Z,21.50
2018-06-19T09:40:19.665Z,21.40
2018-06-19T09:42:48.801Z,21.50
2018-06-19T09:45:17.911Z,21.60
2018-06-19T09:47:47.053Z,21.70
2018-06-19T09:50:16.178Z,21.70
2018-06-19T09:52:45.337Z,21.70
2018-06-19T09:55:14.464Z,21.70
2018-06-19T09:57:43.580Z,21.70
2018-06-19T10:00:16.833Z,21.80
2018-06-19T10:02:45.973Z,21.90
2018-06-19T10:05:15.112Z,21.80
2018-06-19T10:07:44.246Z,21.90
2018-06-19T10:10:13.625Z,21.90
2018-06-19T10:12:42.767Z,22.00
2018-06-19T10:15:11.886Z,22.00
2018-06-19T10:17:41.013Z,22.00
2018-06-19T10:20:10.170Z,22.00
2018-06-19T10:22:39.382Z,22.00
2018-06-19T10:25:08.682Z,22.00
2018-06-19T10:27:37.797Z,21.90
2018-06-19T10:30:06.913Z,21.90
2018-06-19T10:32:36.070Z,21.90
2018-06-19T10:35:05.291Z,21.80
2018-06-19T10:37:34.385Z,21.80
2018-06-19T10:40:03.570Z,21.70
2018-06-19T10:42:32.693Z,21.70
2018-06-19T10:45:01.825Z,21.70
2018-06-19T10:47:30.953Z,21.80
2018-06-19T10:50:00.082Z,21.90
2018-06-19T10:52:29.218Z,22.00
2018-06-19T10:54:58.345Z,22.10
2018-06-19T10:57:27.476Z,22.30
2018-06-19T10:59:56.864Z,22.50
2018-06-19T11:02:25.990Z,22.60
2018-06-19T11:04:55.166Z,22.70
2018-06-19T11:07:30.920Z,22.90
2018-06-19T11:10:01.625Z,23.10
2018-06-19T11:12:30.749Z,23.20
2018-06-19T11:14:59.873Z,23.20
2018-06-19T11:17:28.997Z,23.20
2018-06-19T11:19:58.140Z,23.20
2018-06-19T11:22:27.253Z,23.10
2018-06-19T11:24:56.918Z,23.10
2018-06-19T11:27:26.194Z,23.00
2018-06-19T11:29:55.341Z,23.00
2018-06-19T11:32:24.449Z,22.90
2018-06-19T11:34:53.629Z,22.80
2018-06-19T11:37:22.779Z,22.80
2018-06-19T11:39:51.908Z,22.70
2018-06-19T11:42:21.045Z,22.70
2018-06-19T11:44:50.165Z,22.60
2018-06-19T11:47:19.290Z,22.50
2018-06-19T11:49:48.469Z,22.50
2018-06-19T11:52:17.613Z,22.40
2018-06-19T11:54:46.972Z,22.50
2018-06-19T11:57:16.122Z,22.60
2018-06-19T11:59:45.278Z,22.70
2018-06-19T12:04:43.314Z,22.80
2018-06-19T12:07:12.449Z,22.80
2018-06-19T12:09:41.569Z,22.80
2018-06-19T12:12:10.694Z,22.80
2018-06-19T12:14:39.810Z,22.70
2018-06-19T12:17:08.946Z,22.70
2018-06-19T12:19:38.082Z,22.60
2018-06-19T12:22:07.257Z,22.50
2018-06-19T12:24:36.377Z,22.50
2018-06-19T12:27:06.333Z,22.50
2018-06-19T12:29:35.555Z,22.70
2018-06-19T12:32:04.861Z,22.90
2018-06-19T12:34:33.999Z,23.20
2018-06-19T12:37:03.121Z,23.50
2018-06-19T12:39:32.273Z,23.70
2018-06-19T12:42:01.418Z,23.60
2018-06-19T12:44:30.550Z,23.50
2018-06-19T12:46:59.677Z,23.50
2018-06-19T12:49:46.105Z,23.50
2018-06-19T12:52:32.445Z,23.40
2018-06-19T12:56:22.502Z,23.60
2018-06-19T12:58:51.626Z,23.70
2018-06-19T13:01:20.757Z,23.90
2018-06-19T13:04:07.085Z,24.10
2018-06-19T13:06:37.263Z,24.20
2018-06-19T13:09:08.629Z,24.40
2018-06-19T13:11:37.819Z,24.50
2018-06-19T13:14:24.399Z,24.50
2018-06-19T13:17:10.833Z,24.60
2018-06-19T13:19:57.434Z,24.40
2018-06-19T13:22:26.728Z,24.10
2018-06-19T13:24:55.949Z,24.00
2018-06-19T13:27:25.074Z,23.90
2018-06-19T13:30:11.789Z,23.80
2018-06-19T13:32:40.993Z,23.70
2018-06-19T13:35:10.121Z,23.60
2018-06-19T13:37:39.246Z,23.40
2018-06-19T13:41:24.777Z,23.40
2018-06-19T13:44:12.821Z,23.40
2018-06-19T13:46:42.306Z,23.80
2018-06-19T13:49:11.453Z,24.10
2018-06-19T13:51:40.585Z,24.40
2018-06-19T13:54:09.730Z,24.50
2018-06-19T13:57:08.185Z,24.60
2018-06-19T13:59:37.517Z,24.60
2018-06-19T14:02:06.861Z,24.50
2018-06-19T14:04:36.012Z,24.40
2018-06-19T14:07:06.319Z,24.30
2018-06-19T14:09:52.721Z,24.20
2018-06-19T14:13:13.839Z,24.10
2018-06-19T14:15:49.983Z,24.00
2018-06-19T14:18:20.741Z,23.90
2018-06-19T14:20:49.860Z,24.00
2018-06-19T14:23:18.989Z,24.10
2018-06-19T14:25:48.129Z,24.20
2018-06-19T14:28:17.257Z,24.30
2018-06-19T14:30:46.389Z,24.20
2018-06-19T14:33:15.521Z,24.10
2018-06-19T14:35:44.682Z,24.00
2018-06-19T14:38:13.824Z,24.00
2018-06-19T14:40:42.945Z,23.90
2018-06-19T14:43:12.075Z,23.70
2018-06-19T14:45:41.215Z,23.60
2018-06-19T14:48:10.321Z,23.50
2018-06-19T14:50:39.501Z,23.40
2018-06-19T14:53:08.609Z,23.40
2018-06-19T14:55:37.737Z,23.30
2018-06-19T14:58:06.891Z,23.40
2018-06-19T15:00:36.021Z,23.50
2018-06-19T15:03:05.158Z,23.70
2018-06-19T15:05:34.373Z,24.00
2018-06-19T15:08:03.509Z,24.20
2018-06-19T15:10:32.629Z,24.30
2018-06-19T15:13:01.991Z,24.30
2018-06-19T15:15:31.092Z,24.30
2018-06-19T15:18:00.209Z,24.20
2018-06-19T15:20:29.476Z,24.20
2018-06-19T15:22:58.588Z,24.10
2018-06-19T15:25:27.760Z,23.90
2018-06-19T15:27:56.873Z,23.80
2018-06-19T15:30:25.993Z,23.70
2018-06-19T15:32:55.125Z,23.70
2018-06-19T15:35:24.273Z,23.60
2018-06-19T15:37:53.410Z,23.50
2018-06-19T15:40:22.551Z,23.50
2018-06-19T15:42:51.673Z,23.40
2018-06-19T15:45:21.017Z,23.40
2018-06-19T15:47:50.277Z,23.40
2018-06-19T15:50:19.392Z,23.50
2018-06-19T15:52:48.512Z,23.50
2018-06-19T15:55:17.636Z,23.60
2018-06-19T15:57:46.759Z,23.60
2018-06-19T16:00:15.889Z,23.70
2018-06-19T16:02:45.010Z,23.60
2018-06-19T16:05:14.140Z,23.60
2018-06-19T16:07:48.917Z,23.60
2018-06-19T16:10:18.068Z,23.60
2018-06-19T16:12:47.256Z,23.60
2018-06-19T16:15:16.401Z,23.60
2018-06-19T16:17:45.552Z,23.50
2018-06-19T16:20:14.676Z,23.50
2018-06-19T16:22:43.804Z,23.50
2018-06-19T16:25:12.941Z,23.60
2018-06-19T16:27:42.069Z,23.60
2018-06-19T16:30:11.199Z,23.50
2018-06-19T16:32:40.319Z,23.50
2018-06-19T16:35:09.484Z,23.60
2018-06-19T16:37:38.662Z,23.70
2018-06-19T16:40:07.826Z,23.70
2018-06-19T16:42:36.956Z,23.60
2018-06-19T16:45:06.173Z,23.60
2018-06-19T16:50:04.353Z,23.40
2018-06-19T16:52:33.477Z,23.30
2018-06-19T16:55:03.137Z,23.30
2018-06-19T16:57:32.772Z,23.20
2018-06-19T17:00:02.266Z,23.20
2018-06-19T17:02:31.658Z,23.10
2018-06-19T17:05:00.896Z,23.10
2018-06-19T17:07:30.430Z,23.00
2018-06-19T17:09:59.573Z,23.00
2018-06-19T17:12:28.759Z,23.00
2018-06-19T17:14:57.886Z,22.90
2018-06-19T17:17:27.061Z,22.90
2018-06-19T17:19:56.266Z,22.80
2018-06-19T17:22:25.452Z,22.90
2018-06-19T17:24:54.578Z,22.90
2018-06-19T17:27:23.797Z,22.90
2018-06-19T17:29:52.989Z,22.90
2018-06-19T17:37:20.129Z,22.80
2018-06-19T17:39:49.337Z,22.80
2018-06-19T17:42:18.482Z,22.80
2018-06-19T17:44:47.620Z,22.70
2018-06-19T17:47:16.761Z,22.70
2018-06-19T17:49:45.905Z,22.60
2018-06-19T17:52:15.207Z,22.60
2018-06-19T17:54:44.365Z,22.50
2018-06-19T17:57:13.476Z,22.50
2018-06-19T17:59:42.752Z,22.50
2018-06-19T18:02:11.881Z,22.50
2018-06-19T18:04:41.056Z,22.40
2018-06-19T18:07:10.189Z,22.40
2018-06-19T18:09:39.325Z,22.40
2018-06-19T18:12:08.716Z,22.40
2018-06-19T18:14:37.853Z,22.30
2018-06-19T18:17:06.973Z,22.30
2018-06-19T18:19:36.118Z,22.30
2018-06-19T18:22:05.285Z,22.30
2018-06-19T18:24:34.414Z,22.30
2018-06-19T18:27:03.573Z,22.30
2018-06-19T18:29:32.717Z,22.30
2018-06-19T18:32:01.862Z,22.20
2018-06-19T18:34:30.993Z,22.20
2018-06-19T18:37:00.149Z,22.20
2018-06-19T18:39:29.368Z,22.20
2018-06-19T18:41:58.509Z,22.20
2018-06-19T18:44:27.693Z,22.20
2018-06-19T18:46:56.967Z,22.10
2018-06-19T18:49:26.889Z,22.10
2018-06-19T18:51:56.173Z,22.10
2018-06-19T18:54:25.513Z,22.00
2018-06-19T18:56:54.669Z,22.00
2018-06-19T18:59:23.889Z,21.90
2018-06-19T19:01:53.104Z,21.90
2018-06-19T19:04:22.260Z,21.90
2018-06-19T19:06:51.431Z,21.80
2018-06-19T19:09:20.557Z,21.80
2018-06-19T19:11:49.785Z,21.80
2018-06-19T19:14:18.946Z,21.70
2018-06-19T19:16:53.345Z,21.70
2018-06-19T19:19:24.514Z,21.60
2018-06-19T19:21:54.572Z,21.60
2018-06-19T19:24:23.819Z,21.50
2018-06-19T19:26:58.196Z,21.50
2018-06-19T19:29:32.700Z,21.40
2018-06-19T19:32:01.831Z,21.40
2018-06-19T19:34:31.181Z,21.30
2018-06-19T19:37:05.873Z,21.30
2018-06-19T19:39:35.105Z,21.20
2018-06-19T19:42:04.241Z,21.20
2018-06-19T19:44:33.403Z,21.10
2018-06-19T19:47:07.894Z,21.10
2018-06-19T19:49:37.131Z,21.00
2018-06-19T19:52:06.255Z,21.00
2018-06-19T19:54:35.654Z,20.90
2018-06-19T19:57:10.105Z,20.90
2018-06-19T19:59:39.259Z,20.90
2018-06-19T20:02:08.485Z,20.80
2018-06-19T20:04:37.633Z,20.80
2018-06-19T20:07:06.817Z,20.80
2018-06-19T20:09:35.991Z,20.70
2018-06-19T20:12:05.253Z,20.70
2018-06-19T20:14:34.394Z,20.70
2018-06-19T20:17:03.616Z,20.60
2018-06-19T20:22:01.898Z,20.60
2018-06-19T20:24:31.017Z,20.50
2018-06-19T20:27:00.418Z,20.50
2018-06-19T20:29:29.613Z,20.50
2018-06-19T20:31:58.822Z,20.40
2018-06-19T20:34:28.027Z,20.40
2018-06-19T20:36:57.155Z,20.40
2018-06-19T20:39:26.338Z,20.30
2018-06-19T20:41:55.796Z,20.30
2018-06-19T20:44:24.965Z,20.30
2018-06-19T20:46:54.093Z,20.30
2018-06-19T20:49:23.441Z,20.20
2018-06-19T20:51:52.749Z,20.20
2018-06-19T20:54:22.021Z,20.20
2018-06-19T20:56:51.190Z,20.20
2018-06-19T20:59:20.459Z,20.20
2018-06-19T21:01:49.745Z,20.10
2018-06-19T21:04:18.933Z,20.10
2018-06-19T21:06:48.157Z,20.10
2018-06-19T21:09:17.362Z,20.10
2018-06-19T21:11:46.598Z,20.10
2018-06-19T21:14:15.774Z,20.10
2018-06-19T21:16:44.953Z,20.10
2018-06-19T21:19:14.434Z,20.10
2018-06-19T21:21:43.732Z,20.20
2018-06-19T21:24:12.970Z,20.20
2018-06-19T21:26:42.214Z,20.20
2018-06-19T21:29:11.402Z,20.10
2018-06-19T21:31:40.565Z,20.10
2018-06-19T21:34:09.740Z,20.20
2018-06-19T21:36:38.990Z,20.10
2018-06-19T21:39:10.118Z,20.10
2018-06-19T21:41:39.249Z,20.10
2018-06-19T21:44:08.453Z,20.10
2018-06-19T21:46:37.589Z,20.10
2018-06-19T21:49:06.701Z,20.10
2018-06-19T21:51:35.921Z,20.00
2018-06-19T21:54:05.049Z,20.00
2018-06-19T21:56:34.390Z,20.00
2018-06-19T21:59:03.509Z,20.00
2018-06-19T22:01:32.625Z,19.90
2018-06-19T22:04:01.760Z,19.90
2018-06-19T22:06:30.889Z,19.90
2018-06-19T22:09:01.037Z,19.90
2018-06-19T22:11:30.159Z,19.90
2018-06-19T22:13:59.400Z,19.80
2018-06-19T22:16:28.518Z,19.80
2018-06-19T22:18:57.645Z,19.80
2018-06-19T22:21:26.787Z,19.70
2018-06-19T22:23:56.077Z,19.70
2018-06-19T22:26:25.197Z,19.70
2018-06-19T22:28:54.370Z,19.70
2018-06-19T22:31:23.597Z,19.60
2018-06-19T22:33:52.713Z,19.60
2018-06-19T22:36:21.828Z,19.60
2018-06-19T22:38:50.945Z,19.60
2018-06-19T22:41:20.082Z,19.50
2018-06-19T22:43:49.213Z,19.50
2018-06-19T22:46:18.333Z,19.50
2018-06-19T22:48:47.496Z,19.50
2018-06-19T22:51:16.642Z,19.50
2018-06-19T22:53:45.772Z,19.50
2018-06-19T22:56:14.908Z,19.50
2018-06-19T22:58:44.039Z,19.50
2018-06-19T23:01:13.329Z,19.40
2018-06-19T23:03:42.447Z,19.40
2018-06-19T23:06:11.558Z,19.40
2018-06-19T23:08:40.681Z,19.30
2018-06-19T23:11:09.825Z,19.30
2018-06-19T23:13:38.958Z,19.30
2018-06-19T23:16:08.085Z,19.30
2018-06-19T23:18:37.218Z,19.30
2018-06-19T23:21:06.353Z,19.20
2018-06-19T23:23:35.526Z,19.20
2018-06-19T23:26:04.657Z,19.20
2018-06-19T23:28:33.790Z,19.20
2018-06-19T23:31:02.905Z,19.10
2018-06-19T23:33:32.037Z,19.10
2018-06-19T23:36:01.189Z,19.10
2018-06-19T23:38:30.326Z,19.10
2018-06-19T23:40:59.457Z,19.10
2018-06-19T23:43:28.593Z,19.10
2018-06-19T23:45:57.717Z,19.10
2018-06-19T23:48:26.881Z,19.10
2018-06-19T23:50:56.043Z,19.00
2018-06-19T23:53:25.166Z,19.00
2018-06-19T23:55:54.289Z,19.00
2018-06-19T23:58:23.408Z,19.00
